Time;durP1;ratioP1;P1;durP2;ratioP2;P2;SDS_P1;SDS_P2;PMS_P1;PMS_P2;Temp;Humidity;BMP_temperature;BMP_pressure;BME280_temperature;BME280_humidity;BME280_pressure;Samples;Min_cycle;Max_cycle;Signal;HPM_P1;HPM_P2
2023/01/03 00:02:15;;;;;;;0.30;0.20;;;11.10;99.90;;;;;;5074090;28;20858;-60
2023/01/03 00:04:42;;;;;;;0.40;0.20;;;10.90;99.90;;;;;;5074058;28;20506;-60
2023/01/03 00:07:09;;;;;;;0.40;0.20;;;10.80;99.90;;;;;;5073910;28;20435;-60
2023/01/03 00:09:36;;;;;;;0.40;0.20;;;10.90;99.90;;;;;;5073033;28;20801;-60
2023/01/03 00:14:50;;;;;;;0.30;0.10;;;10.80;99.90;;;;;;5072911;28;20908;-60
2023/01/03 00:17:18;;;;;;;1.30;0.20;;;10.70;99.90;;;;;;5071893;28;20442;-61
2023/01/03 00:19:46;;;;;;;0.40;0.20;;;10.70;99.90;;;;;;5074562;28;20424;-60
2023/01/03 00:22:14;;;;;;;0.50;0.20;;;10.50;99.90;;;;;;5073780;28;20523;-60
2023/01/03 00:24:42;;;;;;;0.40;0.10;;;10.40;99.90;;;;;;5073063;28;20419;-60
2023/01/03 00:27:09;;;;;;;0.30;0.20;;;10.50;99.90;;;;;;5077222;28;20438;-60
2023/01/03 00:29:37;;;;;;;0.40;0.10;;;10.60;99.90;;;;;;5077662;28;20477;-60
2023/01/03 00:32:06;;;;;;;0.30;0.10;;;10.70;99.90;;;;;;5076797;28;20432;-60
2023/01/03 00:34:35;;;;;;;0.45;0.10;;;10.80;99.90;;;;;;5076833;28;20502;-60
2023/01/03 00:37:02;;;;;;;0.40;0.20;;;10.90;99.90;;;;;;5075698;28;20595;-61
2023/01/03 00:39:29;;;;;;;0.40;0.10;;;11.10;99.90;;;;;;5076201;28;20467;-60
2023/01/03 00:41:58;;;;;;;0.30;0.20;;;11.10;99.90;;;;;;5075755;28;20427;-60
2023/01/03 00:44:26;;;;;;;0.40;0.20;;;11.00;99.90;;;;;;5077190;28;20477;-60
2023/01/03 00:46:53;;;;;;;0.40;0.10;;;10.80;99.90;;;;;;5077159;28;20534;-60
2023/01/03 00:49:22;;;;;;;0.35;0.10;;;10.70;99.90;;;;;;5076169;28;20906;-60
2023/01/03 00:51:49;;;;;;;0.30;0.10;;;10.50;99.90;;;;;;5076062;28;20497;-60
2023/01/03 00:54:17;;;;;;;0.90;0.20;;;10.60;99.90;;;;;;5075493;28;20423;-60
2023/01/03 00:56:46;;;;;;;0.40;0.15;;;10.80;99.90;;;;;;5076014;28;20505;-60
2023/01/03 00:59:14;;;;;;;0.37;0.20;;;10.80;99.90;;;;;;5076025;28;21273;-61
2023/01/03 01:01:43;;;;;;;0.30;0.10;;;10.60;99.90;;;;;;5074329;28;20419;-60
2023/01/03 01:04:12;;;;;;;0.30;0.10;;;10.50;99.90;;;;;;5076495;28;20516;-61
2023/01/03 01:06:42;;;;;;;0.40;0.20;;;10.40;99.90;;;;;;5077304;28;20526;-60
2023/01/03 01:09:13;;;;;;;0.47;0.10;;;10.40;99.90;;;;;;5076595;28;20506;-60
2023/01/03 01:11:41;;;;;;;0.57;0.20;;;10.30;99.90;;;;;;5077304;28;20425;-60
2023/01/03 01:14:19;;;;;;;0.30;0.20;;;10.30;99.90;;;;;;5076292;28;20442;-60
2023/01/03 01:16:48;;;;;;;0.50;0.20;;;10.40;99.90;;;;;;5076821;28;20420;-60
2023/01/03 01:19:15;;;;;;;0.40;0.20;;;10.50;99.90;;;;;;5057079;28;20486;-59
2023/01/03 01:21:45;;;;;;;0.40;0.20;;;10.60;99.90;;;;;;5057187;28;20502;-60
2023/01/03 01:24:12;;;;;;;0.30;0.10;;;10.70;99.90;;;;;;5056149;28;20508;-59
2023/01/03 01:26:40;;;;;;;0.30;0.10;;;10.70;99.90;;;;;;5057348;28;20536;-59
2023/01/03 01:29:08;;;;;;;0.40;0.20;;;10.70;99.90;;;;;;5056673;28;20448;-60
2023/01/03 01:31:35;;;;;;;0.40;0.20;;;10.70;99.90;;;;;;5056738;28;20568;-59
2023/01/03 01:34:02;;;;;;;0.70;0.20;;;10.40;99.90;;;;;;5056441;28;20547;-59
2023/01/03 01:36:31;;;;;;;0.30;0.20;;;10.30;99.90;;;;;;5056266;28;20809;-59
2023/01/03 01:39:03;;;;;;;0.30;0.10;;;10.30;99.90;;;;;;5056289;28;20512;-59
2023/01/03 01:44:50;;;;;;;1.00;0.20;;;10.70;99.90;;;;;;5056014;28;20455;-60
2023/01/03 01:47:24;;;;;;;0.38;0.15;;;10.90;99.90;;;;;;5056374;28;20566;-59
2023/01/03 01:49:56;;;;;;;0.60;0.20;;;10.90;99.90;;;;;;5056562;28;20523;-59
2023/01/03 01:52:24;;;;;;;0.30;0.10;;;10.90;99.90;;;;;;5055760;28;20421;-60
2023/01/03 01:54:54;;;;;;;0.40;0.20;;;10.90;99.90;;;;;;5055921;28;20453;-59
2023/01/03 01:57:24;;;;;;;0.70;0.20;;;10.80;99.90;;;;;;5055479;28;20429;-59
2023/01/03 01:59:51;;;;;;;0.40;0.20;;;10.60;99.90;;;;;;5054476;28;20413;-60
2023/01/03 02:02:22;;;;;;;0.33;0.20;;;10.50;99.90;;;;;;5055048;28;20429;-59
2023/01/03 02:04:53;;;;;;;0.40;0.10;;;10.30;99.90;;;;;;5055317;28;20722;-59
2023/01/03 02:07:22;;;;;;;0.30;0.20;;;10.30;99.90;;;;;;5054995;28;20437;-59
2023/01/03 02:09:53;;;;;;;0.30;0.10;;;10.20;99.90;;;;;;5055023;28;20425;-60
2023/01/03 02:15:22;;;;;;;0.40;0.20;;;10.40;99.90;;;;;;5054653;28;20424;-59
2023/01/03 02:17:58;;;;;;;0.40;0.20;;;10.30;99.90;;;;;;5064119;28;20522;-59
2023/01/03 02:20:42;;;;;;;0.40;0.20;;;10.20;99.90;;;;;;5075823;28;20495;-59
2023/01/03 02:23:31;;;;;;;0.40;0.20;;;10.10;99.90;;;;;;5075522;28;20518;-59
2023/01/03 02:26:23;;;;;;;0.40;0.20;;;10.00;99.90;;;;;;5075379;28;20503;-59
2023/01/03 02:29:18;;;;;;;0.40;0.20;;;10.00;99.90;;;;;;5075068;28;20738;-59
2023/01/03 02:31:57;;;;;;;0.30;0.20;;;10.00;99.90;;;;;;5075547;28;20522;-60
2023/01/03 02:34:34;;;;;;;0.40;0.20;;;10.20;99.90;;;;;;5075508;28;20788;-60
2023/01/03 02:37:09;;;;;;;0.40;0.20;;;10.10;99.90;;;;;;5074842;28;20423;-60
2023/01/03 02:39:46;;;;;;;0.40;0.20;;;10.10;99.90;;;;;;5073842;28;20898;-60
2023/01/03 02:45:10;;;;;;;0.40;0.20;;;9.90;99.90;;;;;;5074733;28;20391;-60
2023/01/03 02:47:44;;;;;;;0.40;0.20;;;9.80;99.90;;;;;;5074716;28;20503;-60
2023/01/03 02:50:13;;;;;;;0.80;0.20;;;9.80;99.90;;;;;;5075744;28;20456;-64
2023/01/03 02:52:43;;;;;;;0.40;0.20;;;9.70;99.90;;;;;;5074624;28;20514;-60
2023/01/03 02:55:16;;;;;;;0.50;0.20;;;9.70;99.90;;;;;;5074746;28;20479;-59
2023/01/03 02:57:47;;;;;;;0.60;0.20;;;9.80;99.90;;;;;;5075108;28;20518;-60
2023/01/03 03:00:17;;;;;;;0.70;0.20;;;9.90;99.90;;;;;;5074557;28;20420;-60
2023/01/03 03:02:51;;;;;;;0.40;0.20;;;10.00;99.90;;;;;;5075195;28;20510;-60
2023/01/03 03:05:24;;;;;;;0.40;0.20;;;10.00;99.90;;;;;;5074575;28;20815;-60
2023/01/03 03:07:52;;;;;;;0.50;0.20;;;10.10;99.90;;;;;;5075407;28;20428;-60
2023/01/03 03:13:13;;;;;;;0.45;0.20;;;10.20;99.90;;;;;;5074636;28;20414;-60
2023/01/03 03:15:45;;;;;;;0.32;0.20;;;10.20;99.90;;;;;;5074425;28;20426;-60
2023/01/03 03:18:19;;;;;;;0.43;0.20;;;10.10;99.90;;;;;;5074843;28;20803;-60
2023/01/03 03:26:25;;;;;;;0.70;0.20;;;10.00;99.90;;;;;;5073182;28;20913;-60
2023/01/03 03:28:58;;;;;;;0.60;0.20;;;10.10;99.90;;;;;;5073767;28;20926;-60
2023/01/03 03:31:33;;;;;;;0.40;0.20;;;10.10;99.90;;;;;;5074185;28;20422;-60
2023/01/03 03:34:07;;;;;;;1.00;0.20;;;10.00;99.90;;;;;;5074762;28;20418;-60
2023/01/03 03:36:44;;;;;;;0.60;0.20;;;9.90;99.90;;;;;;5073257;28;20515;-60
2023/01/03 03:45:00;;;;;;;0.50;0.20;;;9.50;99.90;;;;;;5074848;28;20852;-60
2023/01/03 03:47:35;;;;;;;0.60;0.20;;;9.50;99.90;;;;;;5075120;28;20814;-60
2023/01/03 03:50:08;;;;;;;0.40;0.20;;;9.60;99.90;;;;;;5075054;28;20502;-60
2023/01/03 03:52:36;;;;;;;0.77;0.20;;;9.70;99.90;;;;;;5074997;28;20486;-60
2023/01/03 03:55:09;;;;;;;1.60;0.30;;;9.70;99.90;;;;;;5074282;28;20412;-60
2023/01/03 03:57:44;;;;;;;0.70;0.20;;;9.70;99.90;;;;;;5074284;28;20462;-60
2023/01/03 04:00:15;;;;;;;0.50;0.30;;;9.80;99.90;;;;;;5074685;28;20418;-60
2023/01/03 04:02:47;;;;;;;0.50;0.20;;;9.70;99.90;;;;;;5073587;28;20423;-60
2023/01/03 04:05:20;;;;;;;0.50;0.20;;;9.60;99.90;;;;;;5074550;28;20428;-60
2023/01/03 04:07:47;;;;;;;0.60;0.30;;;9.50;99.90;;;;;;5074007;28;20530;-60
2023/01/03 04:10:19;;;;;;;0.40;0.20;;;9.50;99.90;;;;;;5074848;28;20510;-60
2023/01/03 04:12:47;;;;;;;0.40;0.20;;;9.50;99.90;;;;;;5074210;28;21043;-60
2023/01/03 04:15:15;;;;;;;0.50;0.20;;;9.40;99.90;;;;;;5074165;28;20427;-60
2023/01/03 04:17:42;;;;;;;0.50;0.20;;;9.40;99.90;;;;;;5073337;28;20481;-59
2023/01/03 04:20:11;;;;;;;0.60;0.30;;;9.30;99.90;;;;;;5074128;28;20519;-60
2023/01/03 04:22:39;;;;;;;0.60;0.20;;;9.30;99.90;;;;;;5074690;28;20525;-60
2023/01/03 04:25:08;;;;;;;0.50;0.30;;;9.40;99.90;;;;;;5073854;28;20514;-59
2023/01/03 04:27:35;;;;;;;0.60;0.30;;;9.40;99.90;;;;;;5073961;28;20524;-60
2023/01/03 04:30:02;;;;;;;1.20;0.20;;;9.40;99.90;;;;;;5074293;28;20467;-59
2023/01/03 04:32:30;;;;;;;0.45;0.30;;;9.50;99.90;;;;;;5073922;28;20851;-59
2023/01/03 04:34:57;;;;;;;0.50;0.30;;;9.60;99.90;;;;;;5074083;28;20792;-58
2023/01/03 04:37:24;;;;;;;0.60;0.30;;;9.50;99.90;;;;;;5074036;28;20514;-58
2023/01/03 04:39:53;;;;;;;0.40;0.20;;;9.40;99.90;;;;;;5074238;28;20761;-59
2023/01/03 04:45:05;;;;;;;0.80;0.20;;;9.50;99.90;;;;;;5073606;28;20496;-59
2023/01/03 04:47:33;;;;;;;0.90;0.30;;;9.70;99.90;;;;;;5073931;28;20525;-59
2023/01/03 04:50:00;;;;;;;1.60;0.32;;;9.70;99.90;;;;;;5073836;28;20484;-59
2023/01/03 04:52:28;;;;;;;0.60;0.30;;;9.80;99.90;;;;;;5073133;28;20519;-59
2023/01/03 04:54:57;;;;;;;1.30;0.50;;;9.70;99.90;;;;;;5073914;28;20521;-59
2023/01/03 04:57:24;;;;;;;0.70;0.30;;;9.60;99.90;;;;;;5073463;28;20423;-59
2023/01/03 04:59:51;;;;;;;0.82;0.30;;;9.50;99.90;;;;;;5073673;28;21213;-59
2023/01/03 05:02:18;;;;;;;0.50;0.30;;;9.50;99.90;;;;;;5074129;28;20434;-60
2023/01/03 05:04:46;;;;;;;0.50;0.30;;;9.60;99.90;;;;;;5074218;28;20872;-58
2023/01/03 05:07:13;;;;;;;0.50;0.30;;;9.60;99.90;;;;;;5073376;28;20997;-59
2023/01/03 05:09:40;;;;;;;0.50;0.20;;;9.60;99.90;;;;;;5073945;28;20526;-59
2023/01/03 05:12:11;;;;;;;1.00;0.40;;;9.60;99.90;;;;;;5076421;28;20546;-59
2023/01/03 05:14:40;;;;;;;0.75;0.40;;;9.50;99.90;;;;;;5077648;28;20831;-59
2023/01/03 05:17:07;;;;;;;0.50;0.30;;;9.60;99.90;;;;;;5076752;28;20539;-59
2023/01/03 05:25:48;;;;;;;1.50;0.50;;;9.60;99.90;;;;;;5076889;28;20439;-59
2023/01/03 05:27:55;;;;;;;0.70;0.30;;;9.80;99.90;;;;;;5076434;28;20869;-60
2023/01/03 05:30:23;;;;;;;2.30;0.30;;;9.80;99.90;;;;;;5076878;28;20514;-59
2023/01/03 05:32:50;;;;;;;0.60;0.30;;;9.90;99.90;;;;;;5076835;28;20434;-59
2023/01/03 05:35:17;;;;;;;0.50;0.20;;;9.90;99.90;;;;;;5076731;28;20530;-59
2023/01/03 05:37:44;;;;;;;0.40;0.28;;;9.90;99.90;;;;;;5076003;28;20480;-59
2023/01/03 05:40:12;;;;;;;0.70;0.30;;;9.90;99.90;;;;;;5076415;28;21065;-59
2023/01/03 05:42:40;;;;;;;0.70;0.30;;;9.90;99.90;;;;;;5076614;28;20518;-58
2023/01/03 05:45:10;;;;;;;0.50;0.20;;;9.90;99.90;;;;;;5076450;28;20510;-59
2023/01/03 05:47:37;;;;;;;0.73;0.30;;;9.70;99.90;;;;;;5077007;28;20606;-59
2023/01/03 05:50:05;;;;;;;1.20;0.30;;;9.60;99.90;;;;;;5076995;28;20506;-58
2023/01/03 05:52:33;;;;;;;1.30;0.30;;;9.40;99.90;;;;;;5074588;28;20518;-58
2023/01/03 05:55:00;;;;;;;1.23;0.30;;;9.30;99.90;;;;;;5075520;28;20839;-58
2023/01/03 05:57:27;;;;;;;0.50;0.30;;;9.30;99.90;;;;;;5075625;28;20817;-57
2023/01/03 05:59:54;;;;;;;1.10;0.30;;;9.30;99.90;;;;;;5074569;28;20521;-58
2023/01/03 06:02:23;;;;;;;0.50;0.30;;;9.40;99.90;;;;;;5074807;28;20542;-57
2023/01/03 06:04:50;;;;;;;0.47;0.20;;;9.40;99.90;;;;;;5076218;28;21035;-57
2023/01/03 06:07:17;;;;;;;0.52;0.30;;;9.70;99.90;;;;;;5076485;28;20427;-57
2023/01/03 06:09:45;;;;;;;0.50;0.30;;;9.90;99.90;;;;;;5075020;28;20442;-58
2023/01/03 06:12:12;;;;;;;1.00;0.30;;;10.00;99.90;;;;;;5074077;28;20522;-58
2023/01/03 06:14:39;;;;;;;0.60;0.30;;;10.10;99.90;;;;;;5075920;28;20426;-58
2023/01/03 06:19:52;;;;;;;0.70;0.30;;;10.00;99.90;;;;;;5075244;28;20418;-58
2023/01/03 06:22:20;;;;;;;0.75;0.20;;;9.90;99.90;;;;;;5074780;28;20827;-58
2023/01/03 06:24:47;;;;;;;0.50;0.30;;;9.60;99.90;;;;;;5075544;28;20935;-57
2023/01/03 06:27:14;;;;;;;0.90;0.30;;;9.60;99.90;;;;;;5074398;28;20415;-59
2023/01/03 06:29:41;;;;;;;0.50;0.30;;;9.50;99.90;;;;;;5075960;28;20518;-59
2023/01/03 06:32:09;;;;;;;0.50;0.22;;;9.30;99.90;;;;;;5075726;28;20930;-60
2023/01/03 06:34:36;;;;;;;0.52;0.30;;;9.20;99.90;;;;;;5073677;28;20427;-58
2023/01/03 06:37:05;;;;;;;0.60;0.30;;;9.10;99.90;;;;;;5074265;28;20482;-58
2023/01/03 06:39:33;;;;;;;0.50;0.30;;;9.00;99.90;;;;;;5074323;28;20511;-58
2023/01/03 06:42:38;;;;;;;0.45;0.30;;;8.80;99.90;;;;;;5081749;28;20461;-59
2023/01/03 06:53:11;;;;;;;0.85;0.30;;;8.70;99.90;;;;;;5092944;28;20945;-59
2023/01/03 06:53:12;;;;;;;0.50;0.30;;;8.30;99.90;;;;;;5094016;28;20405;-60
2023/01/03 06:55:40;;;;;;;0.80;0.30;;;8.30;99.90;;;;;;5094928;28;20504;-59
2023/01/03 06:58:07;;;;;;;0.63;0.30;;;8.20;99.90;;;;;;5094962;28;20494;-59
2023/01/03 07:00:36;;;;;;;0.60;0.30;;;8.10;99.90;;;;;;5094730;28;20414;-59
2023/01/03 07:03:04;;;;;;;1.10;0.30;;;8.20;99.90;;;;;;5094518;28;20508;-59
2023/01/03 07:05:31;;;;;;;0.60;0.30;;;8.30;99.90;;;;;;5093261;28;20491;-59
2023/01/03 07:07:58;;;;;;;0.70;0.30;;;8.50;99.90;;;;;;5094782;28;20520;-59
2023/01/03 07:10:27;;;;;;;0.80;0.40;;;8.60;99.90;;;;;;5095431;28;20438;-59
2023/01/03 07:15:43;;;;;;;0.60;0.40;;;8.90;99.90;;;;;;5093210;28;20409;-59
2023/01/03 07:18:11;;;;;;;1.45;0.30;;;9.10;99.90;;;;;;5093912;28;20434;-59
2023/01/03 07:20:41;;;;;;;0.60;0.40;;;9.20;99.90;;;;;;5095497;28;20417;-58
2023/01/03 07:23:08;;;;;;;1.10;0.60;;;9.20;99.90;;;;;;5094620;28;20422;-58
2023/01/03 07:25:40;;;;;;;1.20;0.40;;;9.00;99.90;;;;;;5092958;28;20432;-59
2023/01/03 07:28:08;;;;;;;0.70;0.40;;;8.70;99.90;;;;;;5094469;28;20930;-58
2023/01/03 07:30:40;;;;;;;0.80;0.50;;;8.60;99.90;;;;;;5094423;28;20418;-59
2023/01/03 07:33:08;;;;;;;0.70;0.50;;;8.60;99.90;;;;;;5093791;28;20525;-58
2023/01/03 07:35:36;;;;;;;0.90;0.50;;;8.50;99.90;;;;;;5094394;28;20413;-58
2023/01/03 07:38:06;;;;;;;1.15;0.40;;;8.50;99.90;;;;;;5094451;28;20432;-57
2023/01/03 07:40:33;;;;;;;1.00;0.40;;;8.50;99.90;;;;;;5093539;28;20421;-57
2023/01/03 07:45:47;;;;;;;0.60;0.30;;;9.00;99.90;;;;;;5091729;28;20947;-58
2023/01/03 07:48:15;;;;;;;0.70;0.40;;;9.30;99.90;;;;;;5093315;28;20431;-56
2023/01/03 07:50:42;;;;;;;1.20;0.40;;;9.30;99.90;;;;;;5092970;28;20418;-58
2023/01/03 07:53:15;;;;;;;0.80;0.40;;;9.20;99.90;;;;;;5093009;28;20430;-58
2023/01/03 07:55:44;;;;;;;0.50;0.40;;;9.20;99.90;;;;;;5091690;28;20510;-59
2023/01/03 07:58:13;;;;;;;1.33;0.45;;;9.00;99.90;;;;;;5093457;28;20422;-60
2023/01/03 08:00:40;;;;;;;1.30;0.40;;;8.90;99.90;;;;;;5093188;28;20493;-58
2023/01/03 08:03:07;;;;;;;1.10;0.40;;;8.80;99.90;;;;;;5091454;28;20516;-58
2023/01/03 08:05:35;;;;;;;0.82;0.50;;;8.70;99.90;;;;;;5092811;28;20504;-58
2023/01/03 08:08:04;;;;;;;1.00;0.50;;;8.70;99.90;;;;;;5091386;28;20523;-58
2023/01/03 08:13:17;;;;;;;0.70;0.40;;;9.10;99.90;;;;;;5092207;28;20409;-58
2023/01/03 08:15:45;;;;;;;1.90;0.50;;;9.40;99.90;;;;;;5092765;28;20413;-58
2023/01/03 08:18:14;;;;;;;1.00;0.50;;;9.70;99.90;;;;;;5093834;28;20520;-58
2023/01/03 08:20:42;;;;;;;0.85;0.50;;;9.70;99.90;;;;;;5093069;28;20789;-58
2023/01/03 08:23:09;;;;;;;1.20;0.50;;;9.80;99.90;;;;;;5092590;28;20429;-58
2023/01/03 08:25:36;;;;;;;0.90;0.50;;;9.50;99.90;;;;;;5092882;28;20417;-58
2023/01/03 08:28:04;;;;;;;0.70;0.40;;;9.30;99.90;;;;;;5091989;28;20426;-57
2023/01/03 08:30:36;;;;;;;0.90;0.50;;;9.30;99.90;;;;;;5088018;28;20437;-58
2023/01/03 08:33:04;;;;;;;1.10;0.40;;;9.20;99.90;;;;;;5090168;28;20525;-58
2023/01/03 08:35:35;;;;;;;0.60;0.40;;;9.30;99.90;;;;;;5091937;28;20489;-58
2023/01/03 08:38:05;;;;;;;1.98;0.50;;;9.30;99.90;;;;;;5093110;28;20512;-58
2023/01/03 08:40:36;;;;;;;0.80;0.50;;;9.50;99.90;;;;;;5092872;28;20464;-57
2023/01/03 08:43:04;;;;;;;1.00;0.40;;;9.70;99.90;;;;;;5092015;28;20528;-57
2023/01/03 08:45:33;;;;;;;1.27;0.50;;;9.60;99.90;;;;;;5093792;28;20787;-57
2023/01/03 08:48:01;;;;;;;0.60;0.40;;;9.50;99.90;;;;;;5096993;28;20889;-57
2023/01/03 08:50:30;;;;;;;0.90;0.40;;;9.40;99.90;;;;;;5095953;28;20432;-57
2023/01/03 08:52:58;;;;;;;1.10;0.60;;;9.50;99.90;;;;;;5095362;28;20838;-58
2023/01/03 08:55:25;;;;;;;0.70;0.50;;;9.60;99.90;;;;;;5095929;28;20510;-57
2023/01/03 08:57:53;;;;;;;0.70;0.50;;;9.50;99.90;;;;;;5096019;28;20856;-58
2023/01/03 09:00:20;;;;;;;0.90;0.50;;;9.50;99.90;;;;;;5095498;28;20505;-56
2023/01/03 09:02:49;;;;;;;0.80;0.50;;;9.40;99.90;;;;;;5095289;28;20429;-57
2023/01/03 09:05:16;;;;;;;0.82;0.50;;;9.30;99.90;;;;;;5094696;28;20464;-58
2023/01/03 09:07:43;;;;;;;0.70;0.40;;;9.10;99.90;;;;;;5095581;28;20425;-58
2023/01/03 09:10:11;;;;;;;1.07;0.60;;;9.00;99.90;;;;;;5096787;28;20430;-58
2023/01/03 09:12:38;;;;;;;1.38;0.50;;;8.90;99.90;;;;;;5096337;28;20446;-58
2023/01/03 09:15:07;;;;;;;0.80;0.50;;;8.90;99.90;;;;;;5095434;28;20871;-59
2023/01/03 09:17:34;;;;;;;0.80;0.50;;;9.10;99.90;;;;;;5096394;28;20880;-59
2023/01/03 09:20:03;;;;;;;0.60;0.40;;;9.20;99.90;;;;;;5096067;28;20445;-59
2023/01/03 09:22:30;;;;;;;1.25;0.40;;;9.20;99.90;;;;;;5095364;28;20516;-60
2023/01/03 09:24:57;;;;;;;0.80;0.50;;;9.20;99.90;;;;;;5093429;28;20424;-59
2023/01/03 09:27:24;;;;;;;0.70;0.40;;;9.10;99.90;;;;;;5094707;28;20421;-60
2023/01/03 09:29:52;;;;;;;0.70;0.50;;;9.40;99.90;;;;;;5094409;28;20524;-59
2023/01/03 09:32:19;;;;;;;0.90;0.50;;;9.50;99.90;;;;;;5094798;28;20799;-60
2023/01/03 09:34:46;;;;;;;1.58;0.40;;;9.70;99.90;;;;;;5094596;28;20418;-60
2023/01/03 09:37:15;;;;;;;0.70;0.50;;;10.00;99.90;;;;;;5094852;28;20520;-60
2023/01/03 09:39:42;;;;;;;2.80;0.70;;;10.10;99.90;;;;;;5094851;28;20500;-60
2023/01/03 09:45:02;;;;;;;2.20;0.60;;;9.80;99.90;;;;;;5094598;28;20512;-61
2023/01/03 09:47:35;;;;;;;2.00;0.70;;;9.70;99.90;;;;;;5095383;28;20786;-60
2023/01/03 09:50:02;;;;;;;1.70;0.70;;;9.50;99.90;;;;;;5096423;28;20495;-60
2023/01/03 10:04:14;;;;;;;1.80;0.65;;;9.40;99.90;;;;;;5094260;28;20432;-58
2023/01/03 10:06:53;;;;;;;1.80;0.65;;;9.70;99.90;;;;;;5094884;28;20524;-58
2023/01/03 10:09:32;;;;;;;1.40;0.70;;;9.70;99.90;;;;;;5095131;28;20430;-58
2023/01/03 10:12:11;;;;;;;1.60;0.70;;;9.70;99.90;;;;;;5096019;28;20520;-58
2023/01/03 10:14:55;;;;;;;1.50;0.60;;;9.60;99.90;;;;;;5093731;28;20422;-58
2023/01/03 10:17:30;;;;;;;1.73;1.00;;;9.50;99.90;;;;;;5092116;28;20810;-58
2023/01/03 10:20:22;;;;;;;1.27;0.70;;;9.50;99.90;;;;;;5094303;28;20507;-58
2023/01/03 10:22:54;;;;;;;0.90;0.60;;;9.50;99.90;;;;;;5095500;28;20929;-59
2023/01/03 10:25:24;;;;;;;1.00;0.50;;;9.40;99.90;;;;;;5093619;28;20877;-58
2023/01/03 10:27:55;;;;;;;0.80;0.52;;;9.40;99.90;;;;;;5093501;28;20818;-59
2023/01/03 10:30:37;;;;;;;1.00;0.53;;;9.40;99.90;;;;;;5094645;28;20495;-58
2023/01/03 10:33:29;;;;;;;1.30;0.57;;;9.40;99.90;;;;;;5095772;28;20460;-58
2023/01/03 10:35:56;;;;;;;1.50;0.50;;;9.30;99.90;;;;;;5094020;28;20500;-58
2023/01/03 10:38:24;;;;;;;1.40;0.50;;;9.30;99.90;;;;;;5093049;28;20468;-56
2023/01/03 10:40:56;;;;;;;1.10;0.50;;;9.40;99.90;;;;;;5094286;28;20429;-56
2023/01/03 10:43:29;;;;;;;1.10;0.60;;;9.40;99.90;;;;;;5094324;28;20477;-58
2023/01/03 10:45:59;;;;;;;0.77;0.50;;;9.50;99.90;;;;;;5093184;28;20497;-57
2023/01/03 10:48:35;;;;;;;0.95;0.50;;;9.70;99.90;;;;;;5093567;28;20428;-58
2023/01/03 10:51:05;;;;;;;1.20;0.70;;;9.80;99.90;;;;;;5094642;28;20462;-56
2023/01/03 10:53:41;;;;;;;1.65;0.93;;;10.00;99.90;;;;;;5094916;28;20874;-57
2023/01/03 10:56:16;;;;;;;2.10;1.17;;;10.30;99.90;;;;;;5091730;28;20418;-55
2023/01/03 10:58:44;;;;;;;1.00;0.60;;;10.50;99.90;;;;;;5090991;28;20417;-57
2023/01/03 11:01:21;;;;;;;2.15;0.50;;;10.50;99.90;;;;;;5090961;28;20501;-57
2023/01/03 11:04:09;;;;;;;1.30;0.50;;;10.50;99.90;;;;;;5092422;28;20842;-55
2023/01/03 11:06:37;;;;;;;1.20;0.60;;;10.70;99.90;;;;;;5089545;28;20444;-57
2023/01/03 11:09:10;;;;;;;0.90;0.50;;;10.70;99.90;;;;;;5090202;28;20426;-58
2023/01/03 11:11:43;;;;;;;1.30;0.60;;;10.60;99.90;;;;;;5088997;28;20433;-49
2023/01/03 11:14:22;;;;;;;1.80;0.50;;;10.70;99.90;;;;;;5092579;28;20426;-59
2023/01/03 11:16:59;;;;;;;0.90;0.50;;;10.80;99.90;;;;;;5089892;28;20433;-59
2023/01/03 11:19:29;;;;;;;1.02;0.60;;;10.90;99.90;;;;;;5090311;28;20849;-59
2023/01/03 11:22:05;;;;;;;0.73;0.50;;;11.00;99.90;;;;;;5090442;28;20422;-59
2023/01/03 11:24:57;;;;;;;0.80;0.40;;;11.00;99.90;;;;;;5091557;28;20483;-59
2023/01/03 11:27:58;;;;;;;1.58;0.43;;;10.90;99.90;;;;;;5091236;28;20465;-59
2023/01/03 11:30:30;;;;;;;0.60;0.40;;;10.90;99.90;;;;;;5084217;28;20430;-59
2023/01/03 11:33:18;;;;;;;0.80;0.40;;;10.80;99.90;;;;;;5091209;28;20521;-59
2023/01/03 11:35:59;;;;;;;0.90;0.40;;;10.80;99.90;;;;;;5092784;28;20750;-59
2023/01/03 11:38:41;;;;;;;2.33;0.80;;;10.90;99.90;;;;;;5091819;28;20438;-59
2023/01/03 11:41:26;;;;;;;0.80;0.40;;;11.00;99.90;;;;;;5090665;28;21006;-58
2023/01/03 11:44:30;;;;;;;0.70;0.30;;;10.90;99.90;;;;;;5092329;28;20837;-58
2023/01/03 11:47:10;;;;;;;0.60;0.30;;;11.00;99.90;;;;;;5069855;28;20440;-58
2023/01/03 11:49:49;;;;;;;0.68;0.30;;;11.10;99.90;;;;;;5078257;28;20517;-58
2023/01/03 11:52:29;;;;;;;2.50;0.40;;;11.20;99.90;;;;;;5091470;28;20524;-58
2023/01/03 11:55:31;;;;;;;0.90;0.40;;;11.30;99.90;;;;;;5091206;28;20479;-59
2023/01/03 11:58:14;;;;;;;0.50;0.30;;;11.40;99.90;;;;;;5090311;28;20421;-59
2023/01/03 12:00:52;;;;;;;0.90;0.30;;;11.60;99.90;;;;;;5088521;28;20422;-61
2023/01/03 12:03:32;;;;;;;1.10;0.30;;;11.80;99.90;;;;;;5085355;28;21023;-58
2023/01/03 12:06:09;;;;;;;0.60;0.30;;;11.70;99.90;;;;;;5089234;28;20442;-58
2023/01/03 12:08:46;;;;;;;0.40;0.20;;;11.70;99.90;;;;;;5082128;28;20690;-58
2023/01/03 12:11:31;;;;;;;0.90;0.30;;;11.50;99.90;;;;;;5090260;28;20469;-58
2023/01/03 12:14:06;;;;;;;0.40;0.20;;;11.30;99.90;;;;;;5093052;28;20444;-59
2023/01/03 12:16:39;;;;;;;0.40;0.20;;;11.10;99.90;;;;;;5087689;28;20494;-58
2023/01/03 12:19:16;;;;;;;0.70;0.20;;;11.20;99.90;;;;;;5078475;28;20470;-58
2023/01/03 12:21:47;;;;;;;0.40;0.20;;;11.30;99.90;;;;;;5069885;28;20431;-58
2023/01/03 12:24:20;;;;;;;0.40;0.20;;;11.40;99.90;;;;;;5075186;28;20421;-58
2023/01/03 12:26:53;;;;;;;1.10;0.20;;;11.50;99.90;;;;;;5073807;28;20498;-59
2023/01/03 12:29:26;;;;;;;0.63;0.20;;;11.60;99.90;;;;;;5071310;28;20435;-60
2023/01/03 12:32:01;;;;;;;0.40;0.20;;;11.80;99.90;;;;;;5073911;28;20558;-56
2023/01/03 12:34:36;;;;;;;0.50;0.20;;;11.80;99.90;;;;;;5071746;28;20424;-60
2023/01/03 12:37:10;;;;;;;0.40;0.20;;;11.80;99.90;;;;;;5073622;28;20521;-60
2023/01/03 12:39:53;;;;;;;1.00;0.20;;;11.90;99.90;;;;;;5056615;28;20510;-60
2023/01/03 12:42:29;;;;;;;0.50;0.20;;;12.00;99.90;;;;;;5063275;28;20431;-61
2023/01/03 12:45:03;;;;;;;0.40;0.20;;;12.10;99.90;;;;;;5071718;28;20499;-60
2023/01/03 12:47:38;;;;;;;0.40;0.20;;;12.10;99.90;;;;;;5064184;28;20540;-61
2023/01/03 12:50:14;;;;;;;1.00;0.20;;;11.90;99.90;;;;;;5067219;28;20930;-61
2023/01/03 12:52:43;;;;;;;0.47;0.20;;;12.00;99.90;;;;;;5071529;28;20574;-61
2023/01/03 12:55:21;;;;;;;0.60;0.30;;;11.90;99.90;;;;;;5072608;28;20514;-61
2023/01/03 12:58:03;;;;;;;1.00;0.30;;;11.90;99.90;;;;;;5072513;28;20530;-62
2023/01/03 13:00:52;;;;;;;0.40;0.20;;;12.00;99.90;;;;;;5069878;28;20521;-63
2023/01/03 13:03:25;;;;;;;0.60;0.20;;;11.90;99.90;;;;;;5071996;28;20819;-62
2023/01/03 13:05:57;;;;;;;0.70;0.30;;;12.10;99.90;;;;;;5072123;28;20929;-62
2023/01/03 13:08:34;;;;;;;0.60;0.20;;;12.20;99.90;;;;;;5067570;28;20466;-62
2023/01/03 13:11:04;;;;;;;1.40;0.20;;;12.30;99.90;;;;;;5057062;28;20500;-62
2023/01/03 13:13:33;;;;;;;0.40;0.20;;;12.40;99.90;;;;;;5072662;28;20795;-62
2023/01/03 13:16:20;;;;;;;0.30;0.10;;;12.40;99.90;;;;;;5073532;28;20456;-62
2023/01/03 13:18:49;;;;;;;0.40;0.20;;;12.40;99.90;;;;;;5080377;28;20496;-62
2023/01/03 13:21:50;;;;;;;0.40;0.20;;;11.90;99.90;;;;;;5093243;28;20513;-62
2023/01/03 13:24:41;;;;;;;0.70;0.30;;;11.60;99.90;;;;;;5076316;28;20450;-62
2023/01/03 13:27:33;;;;;;;0.50;0.30;;;11.50;99.90;;;;;;5077143;28;20459;-62
2023/01/03 13:30:00;;;;;;;0.40;0.20;;;11.50;99.90;;;;;;5074392;28;20541;-61
2023/01/03 13:32:30;;;;;;;0.50;0.20;;;11.50;99.90;;;;;;5073172;28;20458;-62
2023/01/03 13:35:29;;;;;;;0.60;0.20;;;11.60;99.90;;;;;;5078045;28;20438;-63
2023/01/03 13:38:13;;;;;;;0.80;0.30;;;11.50;99.90;;;;;;5065494;28;20437;-62
2023/01/03 13:40:45;;;;;;;0.50;0.30;;;11.60;99.90;;;;;;5091724;28;20467;-62
2023/01/03 13:43:16;;;;;;;0.70;0.20;;;11.70;99.90;;;;;;5074511;28;20439;-63
2023/01/03 13:45:57;;;;;;;0.47;0.10;;;11.80;99.90;;;;;;5090870;28;20414;-62
2023/01/03 13:48:27;;;;;;;0.43;0.20;;;11.70;99.90;;;;;;5092367;28;20434;-63
2023/01/03 13:51:47;;;;;;;0.80;0.20;;;11.70;99.90;;;;;;5077403;28;20486;-63
2023/01/03 13:54:33;;;;;;;0.90;0.20;;;11.70;99.90;;;;;;5059466;28;20423;-63
2023/01/03 13:57:03;;;;;;;0.80;0.20;;;11.70;99.90;;;;;;5078415;28;20518;-62
2023/01/03 13:59:40;;;;;;;0.60;0.20;;;11.70;99.90;;;;;;5071972;28;20431;-63
2023/01/03 14:02:51;;;;;;;0.70;0.10;;;11.60;99.90;;;;;;5072427;28;20507;-62
2023/01/03 14:05:53;;;;;;;0.40;0.20;;;11.60;99.90;;;;;;5065643;28;20510;-63
2023/01/03 14:08:43;;;;;;;0.40;0.10;;;11.50;99.90;;;;;;5069718;28;20436;-63
2023/01/03 14:11:43;;;;;;;0.47;0.20;;;11.40;99.90;;;;;;5077377;28;20518;-62
2023/01/03 14:14:13;;;;;;;0.70;0.20;;;11.30;99.90;;;;;;5076413;28;20526;-62
2023/01/03 14:16:46;;;;;;;0.40;0.20;;;11.20;99.90;;;;;;5094139;28;20501;-62
2023/01/03 14:19:19;;;;;;;0.50;0.20;;;11.20;99.90;;;;;;5094880;28;20455;-62
2023/01/03 14:21:49;;;;;;;0.43;0.20;;;11.20;99.90;;;;;;5084359;28;20423;-62
2023/01/03 14:24:23;;;;;;;0.40;0.20;;;11.20;99.90;;;;;;5073551;28;20423;-62
2023/01/03 14:26:55;;;;;;;0.40;0.20;;;11.20;99.90;;;;;;5073189;28;20423;-62